createdAt,value
2019-03-09T00:00:04.256Z,97860.00
2019-03-09T00:05:12.623Z,97854.00
2019-03-09T00:10:18.483Z,97857.00
2019-03-09T00:15:24.882Z,97857.00
2019-03-09T00:20:32.319Z,97837.00
2019-03-09T00:25:40.257Z,97833.00
2019-03-09T00:30:47.835Z,97824.00
2019-03-09T00:35:56.691Z,97831.00
2019-03-09T00:41:03.666Z,97815.00
2019-03-09T00:46:12.546Z,97822.00
2019-03-09T00:51:19.069Z,97819.00
2019-03-09T00:56:25.038Z,97818.00
2019-03-09T01:01:31.682Z,97814.00
2019-03-09T01:06:39.985Z,97807.00
2019-03-09T01:11:45.860Z,97790.00
2019-03-09T01:16:52.558Z,97789.00
2019-03-09T01:22:17.772Z,97772.00
2019-03-09T01:27:24.815Z,97762.00
2019-03-09T01:32:30.804Z,97772.00
2019-03-09T01:37:37.432Z,97769.00
2019-03-09T01:42:44.078Z,97765.00
2019-03-09T01:47:49.823Z,97746.00
2019-03-09T01:52:56.307Z,97747.00
2019-03-09T01:58:02.954Z,97718.00
2019-03-09T02:03:09.682Z,97703.00
2019-03-09T02:08:16.498Z,97692.00
2019-03-09T02:13:23.397Z,97688.00
2019-03-09T02:18:31.348Z,97679.00
2019-03-09T02:23:38.217Z,97666.00
2019-03-09T02:28:44.094Z,97670.00
2019-03-09T02:33:51.507Z,97661.00
2019-03-09T02:39:02.668Z,97651.00
2019-03-09T02:44:10.616Z,97644.00
2019-03-09T02:49:16.847Z,97631.00
2019-03-09T02:54:22.722Z,97630.00
2019-03-09T02:59:30.885Z,97613.00
2019-03-09T03:04:37.636Z,97596.00
2019-03-09T03:09:44.230Z,97587.00
2019-03-09T03:15:12.090Z,97582.00
2019-03-09T03:20:18.099Z,97556.00
2019-03-09T03:25:24.961Z,97549.00
2019-03-09T03:30:31.475Z,97535.00
2019-03-09T03:35:38.249Z,97532.00
2019-03-09T03:40:44.493Z,97527.00
2019-03-09T03:45:52.146Z,97526.00
2019-03-09T03:50:58.714Z,97524.00
2019-03-09T03:56:05.504Z,97516.00
2019-03-09T04:01:12.518Z,97493.00
2019-03-09T04:06:19.604Z,97484.00
2019-03-09T04:11:26.191Z,97484.00
2019-03-09T04:16:32.455Z,97464.00
2019-03-09T04:21:38.902Z,97462.00
2019-03-09T04:26:44.777Z,97457.00
2019-03-09T04:31:50.689Z,97441.00
2019-03-09T04:37:02.463Z,97429.00
2019-03-09T04:42:09.408Z,97420.00
2019-03-09T04:47:15.906Z,97415.00
2019-03-09T04:52:21.519Z,97408.00
2019-03-09T04:57:28.107Z,97400.00
2019-03-09T05:02:35.750Z,97381.00
2019-03-09T05:07:54.631Z,97371.00
2019-03-09T05:13:28.900Z,97367.00
2019-03-09T05:18:35.631Z,97359.00
2019-03-09T05:23:42.113Z,97357.00
2019-03-09T05:28:48.135Z,97346.00
2019-03-09T05:33:54.164Z,97349.00
2019-03-09T05:39:00.978Z,97327.00
2019-03-09T05:44:09.389Z,97317.00
2019-03-09T05:49:16.383Z,97337.00
2019-03-09T05:54:23.429Z,97338.00
2019-03-09T05:59:32.152Z,97327.00
2019-03-09T06:04:39.142Z,97320.00
2019-03-09T06:09:45.254Z,97319.00
2019-03-09T06:14:52.532Z,97332.00
2019-03-09T06:19:59.304Z,97312.00
2019-03-09T06:25:07.474Z,97327.00
2019-03-09T06:30:34.484Z,97327.00
2019-03-09T06:36:33.388Z,97316.00
2019-03-09T06:41:46.956Z,97314.00
2019-03-09T06:46:53.709Z,97316.00
2019-03-09T06:52:00.760Z,97320.00
2019-03-09T06:57:13.852Z,97311.00
2019-03-09T07:02:16.020Z,97332.00
2019-03-09T07:07:21.990Z,97333.00
2019-03-09T07:12:27.936Z,97334.00
2019-03-09T07:17:35.796Z,97336.00
2019-03-09T07:22:42.579Z,97327.00
2019-03-09T07:28:10.309Z,97339.00
2019-03-09T07:33:17.418Z,97330.00
2019-03-09T07:38:23.341Z,97308.00
2019-03-09T07:43:30.098Z,97293.00
2019-03-09T07:48:36.927Z,97329.00
2019-03-09T07:53:44.814Z,97336.00
2019-03-09T07:58:51.711Z,97323.00
2019-03-09T08:04:00.459Z,97335.00
2019-03-09T08:09:08.526Z,97335.00
2019-03-09T08:14:15.078Z,97374.00
2019-03-09T08:19:21.826Z,97374.00
2019-03-09T08:24:27.810Z,97379.00
2019-03-09T08:29:35.204Z,97364.00
2019-03-09T08:34:42.657Z,97368.00
2019-03-09T08:39:48.625Z,97354.00
2019-03-09T08:44:54.644Z,97341.00
2019-03-09T08:50:04.964Z,97347.00
2019-03-09T08:55:14.457Z,97363.00
2019-03-09T09:00:26.344Z,97365.00
2019-03-09T09:05:32.303Z,97364.00
2019-03-09T09:10:57.595Z,97367.00
2019-03-09T09:16:04.910Z,97328.00
2019-03-09T09:21:30.194Z,97370.00
2019-03-09T09:26:38.387Z,97371.00
2019-03-09T09:31:44.407Z,97385.00
2019-03-09T09:36:52.027Z,97395.00
2019-03-09T09:42:00.150Z,97383.00
2019-03-09T09:47:07.044Z,97410.00
2019-03-09T09:52:17.968Z,97405.00
2019-03-09T10:02:57.791Z,97409.00
2019-03-09T10:08:04.794Z,97430.00
2019-03-09T10:13:12.008Z,97422.00
2019-03-09T10:18:20.107Z,97416.00
2019-03-09T10:29:31.516Z,97445.00
2019-03-09T10:47:52.692Z,97462.00
2019-03-09T11:48:02.231Z,97414.00
2019-03-09T11:58:47.434Z,97417.00
2019-03-09T12:09:45.420Z,97423.00
2019-03-09T12:28:36.595Z,97423.00
2019-03-09T12:34:06.471Z,97406.00
2019-03-09T12:39:21.898Z,97409.00
2019-03-09T12:44:48.471Z,97402.00
2019-03-09T13:01:45.814Z,97363.00
2019-03-09T13:07:24.716Z,97358.00
2019-03-09T13:24:35.006Z,97358.00
2019-03-09T13:35:44.812Z,97357.00
2019-03-09T13:40:53.598Z,97352.00
2019-03-09T13:46:08.043Z,97338.00
2019-03-09T13:51:17.677Z,97339.00
2019-03-09T13:56:24.320Z,97339.00
2019-03-09T14:01:31.500Z,97322.00
2019-03-09T14:06:39.613Z,97348.00
2019-03-09T14:11:51.425Z,97325.00
2019-03-09T14:17:22.884Z,97352.00
2019-03-09T14:23:11.474Z,97310.00
2019-03-09T14:28:30.625Z,97315.00
2019-03-09T14:33:37.604Z,97300.00
2019-03-09T14:38:51.336Z,97301.00
2019-03-09T14:43:58.435Z,97292.00
2019-03-09T14:49:05.223Z,97270.00
2019-03-09T14:54:11.745Z,97275.00
2019-03-09T14:59:19.888Z,97269.00
2019-03-09T15:04:32.951Z,97245.00
2019-03-09T15:10:11.985Z,97243.00
2019-03-09T15:15:22.485Z,97239.00
2019-03-09T15:20:29.790Z,97220.00
2019-03-09T15:25:37.139Z,97218.00
2019-03-09T15:30:44.078Z,97206.00
2019-03-09T15:35:51.183Z,97183.00
2019-03-09T15:40:57.188Z,97159.00
2019-03-09T15:46:05.749Z,97136.00
2019-03-09T15:51:30.322Z,97105.00
2019-03-09T15:56:45.620Z,97080.00
2019-03-09T16:01:55.881Z,97066.00
2019-03-09T16:07:09.609Z,97069.00
2019-03-09T16:12:17.667Z,97081.00
2019-03-09T16:17:27.170Z,97086.00
2019-03-09T16:22:34.295Z,97072.00
2019-03-09T16:27:42.187Z,97052.00
2019-03-09T16:32:54.568Z,97019.00
2019-03-09T16:38:01.585Z,97017.00
2019-03-09T16:43:13.538Z,97023.00
2019-03-09T16:48:22.171Z,97003.00
2019-03-09T16:53:28.915Z,96993.00
2019-03-09T16:58:35.559Z,97000.00
2019-03-09T17:03:50.298Z,96990.00
2019-03-09T17:08:57.994Z,96983.00
2019-03-09T17:14:05.123Z,96970.00
2019-03-09T17:19:17.861Z,96960.00
2019-03-09T17:24:29.363Z,96962.00
2019-03-09T17:29:46.291Z,96936.00
2019-03-09T17:41:06.734Z,96913.00
2019-03-09T17:46:44.384Z,96935.00
2019-03-09T17:52:05.431Z,96958.00
2019-03-09T17:57:19.956Z,96947.00
2019-03-09T18:08:05.521Z,96966.00
2019-03-09T18:13:18.823Z,97004.00
2019-03-09T18:18:28.894Z,97009.00
2019-03-09T18:23:35.649Z,96993.00
2019-03-09T18:28:42.426Z,96992.00
2019-03-09T18:34:00.190Z,97006.00
2019-03-09T18:39:09.389Z,96990.00
2019-03-09T18:44:26.343Z,97027.00
2019-03-09T18:49:33.282Z,97025.00
2019-03-09T18:55:08.920Z,97033.00
2019-03-09T19:00:17.568Z,97176.00
2019-03-09T19:05:24.303Z,97171.00
2019-03-09T19:10:32.251Z,97163.00
2019-03-09T19:15:38.977Z,97092.00
2019-03-09T19:20:53.192Z,97112.00
2019-03-09T19:26:03.490Z,97151.00
2019-03-09T19:31:11.296Z,97175.00
2019-03-09T19:36:29.181Z,97188.00
2019-03-09T19:41:39.927Z,97205.00
2019-03-09T19:46:47.387Z,97220.00
2019-03-09T19:51:56.578Z,97206.00
2019-03-09T19:57:07.521Z,97223.00
2019-03-09T20:02:14.294Z,97253.00
2019-03-09T20:07:21.178Z,97270.00
2019-03-09T20:12:31.231Z,97305.00
2019-03-09T20:17:37.856Z,97318.00
2019-03-09T20:22:43.892Z,97340.00
2019-03-09T20:27:51.993Z,97355.00
2019-03-09T20:32:59.406Z,97363.00
2019-03-09T20:38:05.842Z,97393.00
2019-03-09T20:43:12.859Z,97418.00
2019-03-09T20:48:33.536Z,97417.00
2019-03-09T20:54:09.200Z,97412.00
2019-03-09T20:59:16.018Z,97422.00
2019-03-09T21:04:22.464Z,97426.00
2019-03-09T21:09:30.418Z,97466.00
2019-03-09T21:14:50.957Z,97466.00
2019-03-09T21:19:59.539Z,97482.00
2019-03-09T21:25:07.973Z,97500.00
2019-03-09T21:30:28.251Z,97502.00
2019-03-09T21:35:46.348Z,97528.00
2019-03-09T21:40:54.806Z,97533.00
2019-03-09T21:46:01.654Z,97541.00
2019-03-09T21:51:08.542Z,97545.00
2019-03-09T21:56:15.328Z,97554.00
2019-03-09T22:01:21.717Z,97578.00
2019-03-09T22:06:39.422Z,97585.00
2019-03-09T22:11:49.496Z,97578.00
2019-03-09T22:17:00.339Z,97589.00
2019-03-09T22:22:12.070Z,97610.00
2019-03-09T22:32:45.562Z,97622.00
2019-03-09T22:37:57.333Z,97616.00
2019-03-09T23:25:06.281Z,97642.00
2019-03-09T23:49:20.140Z,97674.00
